createdAt,value
2022-10-19T00:02:06.001Z,13.60
2022-10-19T00:04:51.566Z,13.50
2022-10-19T00:07:26.256Z,13.50
2022-10-19T00:09:59.570Z,13.40
2022-10-19T00:12:29.268Z,13.40
2022-10-19T00:15:02.444Z,13.40
2022-10-19T00:17:42.403Z,13.40
2022-10-19T00:20:14.882Z,13.40
2022-10-19T00:22:45.399Z,13.40
2022-10-19T00:25:15.937Z,13.40
2022-10-19T00:27:46.316Z,13.30
2022-10-19T00:30:20.891Z,13.40
2022-10-19T00:32:52.697Z,13.30
2022-10-19T00:35:24.301Z,13.30
2022-10-19T00:37:57.175Z,13.30
2022-10-19T00:40:28.347Z,13.30
2022-10-19T00:43:02.653Z,13.30
2022-10-19T00:45:35.600Z,13.30
2022-10-19T00:48:09.324Z,13.20
2022-10-19T00:50:44.878Z,13.20
2022-10-19T00:53:17.560Z,13.10
2022-10-19T00:55:47.941Z,13.00
2022-10-19T00:58:21.193Z,13.00
2022-10-19T01:00:54.760Z,13.00
2022-10-19T01:03:37.771Z,13.10
2022-10-19T01:06:10.452Z,13.00
2022-10-19T01:08:41.093Z,13.00
2022-10-19T01:11:31.955Z,13.10
2022-10-19T01:14:14.541Z,13.10
2022-10-19T01:16:53.871Z,13.10
2022-10-19T01:19:51.703Z,13.10
2022-10-19T01:22:44.914Z,13.00
2022-10-19T01:25:22.909Z,13.10
2022-10-19T01:28:19.476Z,13.00
2022-10-19T01:30:57.973Z,12.90
2022-10-19T01:33:39.817Z,12.90
2022-10-19T01:36:19.891Z,12.80
2022-10-19T01:39:00.809Z,12.80
2022-10-19T01:41:42.508Z,12.80
2022-10-19T01:44:21.822Z,12.70
2022-10-19T01:46:56.872Z,12.70
2022-10-19T01:49:35.671Z,12.70
2022-10-19T01:52:08.369Z,12.60
2022-10-19T01:54:48.733Z,12.60
2022-10-19T01:57:23.523Z,12.50
2022-10-19T01:59:54.781Z,12.60
2022-10-19T02:02:29.279Z,12.70
2022-10-19T02:05:01.286Z,12.70
2022-10-19T02:07:35.290Z,12.70
2022-10-19T02:10:05.988Z,12.80
2022-10-19T02:12:39.575Z,12.70
2022-10-19T02:15:15.677Z,12.70
2022-10-19T02:17:50.919Z,12.50
2022-10-19T02:20:21.542Z,12.60
2022-10-19T02:22:52.185Z,12.50
2022-10-19T02:25:25.762Z,12.40
2022-10-19T02:27:58.964Z,12.50
2022-10-19T02:30:35.426Z,12.40
2022-10-19T02:33:07.889Z,12.50
2022-10-19T02:35:36.810Z,12.40
2022-10-19T02:38:09.056Z,12.40
2022-10-19T02:40:49.014Z,12.50
2022-10-19T02:43:25.132Z,12.50
2022-10-19T02:46:01.639Z,12.50
2022-10-19T02:48:35.133Z,12.60
2022-10-19T02:51:05.048Z,12.60
2022-10-19T02:53:44.348Z,12.50
2022-10-19T02:56:15.720Z,12.50
2022-10-19T02:58:46.511Z,12.50
2022-10-19T03:01:17.004Z,12.40
2022-10-19T03:03:48.657Z,12.40
2022-10-19T03:06:20.964Z,12.30
2022-10-19T03:08:51.082Z,12.20
2022-10-19T03:11:20.997Z,12.10
2022-10-19T03:13:50.841Z,12.20
2022-10-19T03:16:21.009Z,12.20
2022-10-19T03:18:52.793Z,12.20
2022-10-19T03:21:25.673Z,12.20
2022-10-19T03:23:55.782Z,12.10
2022-10-19T03:26:26.561Z,12.10
2022-10-19T03:28:57.436Z,12.10
2022-10-19T03:31:28.007Z,12.00
2022-10-19T03:34:00.756Z,12.00
2022-10-19T03:36:32.677Z,11.80
2022-10-19T03:39:06.404Z,11.70
2022-10-19T03:41:46.003Z,11.80
2022-10-19T03:44:22.282Z,11.80
2022-10-19T03:46:52.493Z,11.80
2022-10-19T03:49:23.846Z,11.80
2022-10-19T03:51:57.918Z,11.70
2022-10-19T03:54:28.303Z,11.60
2022-10-19T03:56:58.498Z,11.50
2022-10-19T03:59:29.941Z,11.40
2022-10-19T04:02:07.740Z,11.30
2022-10-19T04:04:43.594Z,11.40
2022-10-19T04:07:13.831Z,11.40
2022-10-19T04:09:51.515Z,11.30
2022-10-19T04:12:23.097Z,11.40
2022-10-19T04:14:57.390Z,11.30
2022-10-19T04:17:31.182Z,11.30
2022-10-19T04:20:02.867Z,11.30
2022-10-19T04:22:32.882Z,11.20
2022-10-19T04:25:08.130Z,11.20
2022-10-19T04:27:39.864Z,11.20
2022-10-19T04:30:11.817Z,11.10
2022-10-19T04:32:41.949Z,11.20
2022-10-19T04:35:13.397Z,11.10
2022-10-19T04:37:43.313Z,11.10
2022-10-19T04:40:15.373Z,11.20
2022-10-19T04:42:46.938Z,11.20
2022-10-19T04:45:18.321Z,11.20
2022-10-19T04:47:52.872Z,11.20
2022-10-19T04:50:24.041Z,11.20
2022-10-19T04:52:53.839Z,11.20
2022-10-19T04:55:24.346Z,11.20
2022-10-19T04:57:54.756Z,11.20
2022-10-19T05:00:25.158Z,11.20
2022-10-19T05:02:56.230Z,11.10
2022-10-19T05:05:28.177Z,11.10
2022-10-19T05:07:58.474Z,11.10
2022-10-19T05:10:33.826Z,11.00
2022-10-19T05:13:05.076Z,11.00
2022-10-19T05:15:36.724Z,11.00
2022-10-19T05:18:09.396Z,11.00
2022-10-19T05:20:43.939Z,11.00
2022-10-19T05:23:13.838Z,10.90
2022-10-19T05:25:44.164Z,10.80
2022-10-19T05:28:16.133Z,10.80
2022-10-19T05:30:49.038Z,10.70
2022-10-19T05:33:19.753Z,10.80
2022-10-19T05:35:51.549Z,10.70
2022-10-19T05:38:21.933Z,10.80
2022-10-19T05:40:54.728Z,10.80
2022-10-19T05:43:25.844Z,10.70
2022-10-19T05:45:56.565Z,10.70
2022-10-19T05:48:27.981Z,10.70
2022-10-19T05:51:02.813Z,10.60
2022-10-19T05:53:33.918Z,10.60
2022-10-19T05:56:05.002Z,10.70
2022-10-19T05:58:36.517Z,10.70
2022-10-19T06:01:06.639Z,10.70
2022-10-19T06:03:36.759Z,10.70
2022-10-19T06:06:09.714Z,10.60
2022-10-19T06:08:40.357Z,10.70
2022-10-19T06:11:12.873Z,10.70
2022-10-19T06:13:45.978Z,10.70
2022-10-19T06:16:19.257Z,10.70
2022-10-19T06:18:49.566Z,10.60
2022-10-19T06:21:23.035Z,10.60
2022-10-19T06:23:54.545Z,10.50
2022-10-19T06:26:25.457Z,10.50
2022-10-19T06:28:56.302Z,10.50
2022-10-19T06:31:26.607Z,10.40
2022-10-19T06:33:59.989Z,10.40
2022-10-19T06:36:39.358Z,10.40
2022-10-19T06:39:09.273Z,10.40
2022-10-19T06:41:46.503Z,10.40
2022-10-19T06:44:16.484Z,10.40
2022-10-19T06:46:46.148Z,10.40
2022-10-19T06:49:16.555Z,10.40
2022-10-19T06:51:48.586Z,10.40
2022-10-19T06:54:18.726Z,10.40
2022-10-19T06:59:24.591Z,10.40
2022-10-19T07:01:57.925Z,10.30
2022-10-19T07:04:32.386Z,10.30
2022-10-19T07:07:03.922Z,10.30
2022-10-19T07:09:34.174Z,10.30
2022-10-19T07:12:05.101Z,10.30
2022-10-19T07:14:38.795Z,10.30
2022-10-19T07:17:11.998Z,10.30
2022-10-19T07:19:43.866Z,10.30
2022-10-19T07:22:20.377Z,10.30
2022-10-19T07:24:52.404Z,10.30
2022-10-19T07:27:37.380Z,10.30
2022-10-19T07:30:08.872Z,10.40
2022-10-19T07:32:45.985Z,10.20
2022-10-19T07:35:21.845Z,10.30
2022-10-19T07:37:53.514Z,10.30
2022-10-19T07:40:27.422Z,10.30
2022-10-19T07:43:00.106Z,10.40
2022-10-19T07:45:30.906Z,10.50
2022-10-19T07:48:01.264Z,10.60
2022-10-19T07:50:31.755Z,10.60
2022-10-19T07:53:11.123Z,10.50
2022-10-19T07:55:42.593Z,10.60
2022-10-19T07:58:11.197Z,10.80
2022-10-19T08:00:43.449Z,10.80
2022-10-19T08:06:05.088Z,10.90
2022-10-19T08:08:37.708Z,10.90
2022-10-19T08:11:13.815Z,10.90
2022-10-19T08:13:48.454Z,11.00
2022-10-19T08:16:26.036Z,11.10
2022-10-19T08:19:02.276Z,11.00
2022-10-19T08:21:38.471Z,11.10
2022-10-19T08:24:16.821Z,11.30
2022-10-19T08:26:51.112Z,11.40
2022-10-19T08:29:32.130Z,11.50
2022-10-19T08:32:08.984Z,11.60
2022-10-19T08:34:38.904Z,11.60
2022-10-19T08:37:19.827Z,11.30
2022-10-19T08:40:18.332Z,11.50
2022-10-19T08:42:57.479Z,11.50
2022-10-19T08:45:35.103Z,11.60
2022-10-19T08:48:25.034Z,11.60
2022-10-19T08:50:56.094Z,11.50
2022-10-19T08:53:38.470Z,11.40
2022-10-19T08:56:45.783Z,11.60
2022-10-19T08:59:23.269Z,11.40
2022-10-19T09:02:00.405Z,11.50
2022-10-19T09:04:34.033Z,11.70
2022-10-19T09:07:24.361Z,11.70
2022-10-19T09:09:57.228Z,11.70
2022-10-19T09:12:44.198Z,11.90
2022-10-19T09:15:19.288Z,11.80
2022-10-19T09:17:57.792Z,11.90
2022-10-19T09:20:35.074Z,11.90
2022-10-19T09:23:16.583Z,12.10
2022-10-19T09:25:51.613Z,12.10
2022-10-19T09:28:40.779Z,12.10
2022-10-19T09:31:17.309Z,12.10
2022-10-19T09:34:00.475Z,12.20
2022-10-19T09:36:50.167Z,12.20
2022-10-19T09:39:26.994Z,12.40
2022-10-19T09:42:02.866Z,12.70
2022-10-19T09:44:34.753Z,12.70
2022-10-19T09:47:17.981Z,12.40
2022-10-19T09:49:51.072Z,12.50
2022-10-19T09:52:34.290Z,12.50
2022-10-19T09:55:07.818Z,12.50
2022-10-19T09:57:45.611Z,12.40
2022-10-19T10:00:25.416Z,12.50
2022-10-19T10:02:57.858Z,12.90
2022-10-19T10:05:37.464Z,12.80
2022-10-19T10:08:14.894Z,13.10
2022-10-19T10:10:50.786Z,13.00
2022-10-19T10:13:25.762Z,13.20
2022-10-19T10:16:01.931Z,13.10
2022-10-19T10:18:36.437Z,13.20
2022-10-19T10:21:25.489Z,13.40
2022-10-19T10:24:05.939Z,13.70
2022-10-19T10:26:39.872Z,13.60
2022-10-19T10:29:21.032Z,13.40
2022-10-19T10:31:55.850Z,13.30
2022-10-19T10:34:49.849Z,13.40
2022-10-19T10:37:29.666Z,13.50
2022-10-19T10:40:23.365Z,13.70
2022-10-19T10:42:59.945Z,13.50
2022-10-19T10:45:41.614Z,13.50
2022-10-19T10:48:24.447Z,13.60
2022-10-19T10:51:00.965Z,13.40
2022-10-19T10:53:43.487Z,13.30
2022-10-19T10:56:24.627Z,13.50
2022-10-19T10:58:59.251Z,13.80
2022-10-19T11:01:36.267Z,14.10
2022-10-19T11:04:19.741Z,14.10
2022-10-19T11:06:55.994Z,14.40
2022-10-19T11:09:36.595Z,14.50
2022-10-19T11:12:14.052Z,14.40
2022-10-19T11:14:52.323Z,14.80
2022-10-19T11:17:32.365Z,15.30
2022-10-19T11:20:10.280Z,15.40
2022-10-19T11:22:50.115Z,15.50
2022-10-19T11:25:35.962Z,15.60
2022-10-19T11:28:28.330Z,15.20
2022-10-19T11:31:07.662Z,15.30
2022-10-19T11:33:58.184Z,15.70
2022-10-19T11:36:47.736Z,15.70
2022-10-19T11:39:34.445Z,15.80
2022-10-19T11:42:10.396Z,15.70
2022-10-19T11:45:07.452Z,15.90
2022-10-19T11:48:01.893Z,15.90
2022-10-19T11:50:53.879Z,15.90
2022-10-19T11:53:34.740Z,16.00
2022-10-19T11:56:11.662Z,15.90
2022-10-19T11:58:50.458Z,16.20
2022-10-19T12:01:35.256Z,16.20
2022-10-19T12:04:30.953Z,16.00
2022-10-19T12:07:13.045Z,16.20
2022-10-19T12:09:57.908Z,16.40
2022-10-19T12:12:36.296Z,16.50
2022-10-19T12:15:25.082Z,16.20
2022-10-19T12:18:03.394Z,15.90
2022-10-19T12:20:41.173Z,16.00
2022-10-19T12:23:27.210Z,16.20
2022-10-19T12:26:08.804Z,16.40
2022-10-19T12:28:45.033Z,16.50
2022-10-19T12:31:18.124Z,16.20
2022-10-19T12:33:56.220Z,16.10
2022-10-19T12:36:33.995Z,16.10
2022-10-19T12:39:11.423Z,16.40
2022-10-19T12:41:53.326Z,16.70
2022-10-19T12:44:57.863Z,16.60
2022-10-19T12:47:29.528Z,16.70
2022-10-19T12:50:00.230Z,16.90
2022-10-19T12:52:41.916Z,16.60
2022-10-19T12:55:29.781Z,16.40
2022-10-19T12:58:02.544Z,16.60
2022-10-19T13:00:35.676Z,16.50
2022-10-19T13:03:07.866Z,16.50
2022-10-19T13:05:40.252Z,16.70
2022-10-19T13:08:31.703Z,16.70
2022-10-19T13:11:14.821Z,16.80
2022-10-19T13:13:57.142Z,16.70
2022-10-19T13:16:59.806Z,16.80
2022-10-19T13:19:33.006Z,17.00
2022-10-19T13:22:24.602Z,17.00
2022-10-19T13:25:27.106Z,16.60
2022-10-19T13:28:33.580Z,16.50
2022-10-19T13:31:25.604Z,16.60
2022-10-19T13:33:55.537Z,16.60
2022-10-19T13:36:27.157Z,16.70
2022-10-19T13:39:12.972Z,16.60
2022-10-19T13:44:42.402Z,16.20
2022-10-19T13:50:34.862Z,15.90
2022-10-19T13:53:35.185Z,15.90
2022-10-19T13:56:30.319Z,15.90
2022-10-19T14:02:12.881Z,16.00
2022-10-19T14:04:52.893Z,15.90
2022-10-19T14:07:27.506Z,15.80
2022-10-19T14:10:09.182Z,15.80
2022-10-19T14:12:43.241Z,15.70
2022-10-19T14:15:27.719Z,15.60
2022-10-19T14:18:03.793Z,15.50
2022-10-19T14:20:39.574Z,15.50
2022-10-19T14:23:24.946Z,15.40
2022-10-19T14:25:59.730Z,15.30
2022-10-19T14:28:44.343Z,15.20
2022-10-19T14:31:24.503Z,15.20
2022-10-19T14:34:13.035Z,15.00
2022-10-19T14:36:49.522Z,14.90
2022-10-19T14:39:31.941Z,14.90
2022-10-19T14:42:06.751Z,14.80
2022-10-19T14:44:43.321Z,14.70
2022-10-19T14:47:19.772Z,14.60
2022-10-19T14:49:53.110Z,14.50
2022-10-19T14:52:30.468Z,14.40
2022-10-19T14:55:07.868Z,14.30
2022-10-19T14:57:43.251Z,14.20
2022-10-19T15:00:22.202Z,14.20
2022-10-19T15:03:01.814Z,14.10
2022-10-19T15:05:35.732Z,14.00
2022-10-19T15:08:22.421Z,14.00
2022-10-19T15:10:55.223Z,13.90
2022-10-19T15:13:32.018Z,13.90
2022-10-19T15:16:02.902Z,13.90
2022-10-19T15:18:55.678Z,13.80
2022-10-19T15:21:30.350Z,13.70
2022-10-19T15:24:23.130Z,13.70
2022-10-19T15:27:08.402Z,13.70
2022-10-19T15:29:41.298Z,13.80
2022-10-19T15:32:19.877Z,13.70
2022-10-19T15:34:52.357Z,13.60
2022-10-19T15:37:24.554Z,13.60
2022-10-19T15:39:56.318Z,13.50
2022-10-19T15:42:34.813Z,13.50
2022-10-19T15:45:06.286Z,13.50
2022-10-19T15:47:38.520Z,13.50
2022-10-19T15:50:32.607Z,13.40
2022-10-19T15:53:02.882Z,13.40
2022-10-19T15:55:34.410Z,13.40
2022-10-19T15:58:04.340Z,13.40
2022-10-19T16:00:36.881Z,13.40
2022-10-19T16:03:07.546Z,13.40
2022-10-19T16:05:39.819Z,13.30
2022-10-19T16:08:15.668Z,13.30
2022-10-19T16:10:49.419Z,13.20
2022-10-19T16:13:19.491Z,13.10
2022-10-19T16:15:56.796Z,13.20
2022-10-19T16:18:40.036Z,13.10
2022-10-19T16:21:11.221Z,13.00
2022-10-19T16:23:43.811Z,12.90
2022-10-19T16:26:17.852Z,12.90
2022-10-19T16:28:49.602Z,13.00
2022-10-19T16:31:20.466Z,12.90
2022-10-19T16:33:50.434Z,12.80
2022-10-19T16:36:20.990Z,12.90
2022-10-19T16:38:51.723Z,12.90
2022-10-19T16:41:25.083Z,12.80
2022-10-19T16:43:58.598Z,12.80
2022-10-19T16:46:31.664Z,12.80
2022-10-19T16:49:01.485Z,12.70
2022-10-19T16:51:35.453Z,12.60
2022-10-19T16:54:07.391Z,12.50
2022-10-19T16:56:43.434Z,12.50
2022-10-19T16:59:14.883Z,12.50
2022-10-19T17:01:46.292Z,12.50
2022-10-19T17:04:18.431Z,12.50
2022-10-19T17:06:49.075Z,12.40
2022-10-19T17:12:11.509Z,12.40
2022-10-19T17:14:43.402Z,12.20
2022-10-19T17:17:14.105Z,12.20
2022-10-19T17:19:44.618Z,12.20
2022-10-19T17:22:16.950Z,12.00
2022-10-19T17:24:47.543Z,12.00
2022-10-19T17:27:19.035Z,11.90
2022-10-19T17:29:49.333Z,12.00
2022-10-19T17:32:25.510Z,12.00
2022-10-19T17:34:57.126Z,11.90
2022-10-19T17:37:27.359Z,11.90
2022-10-19T17:39:58.161Z,12.00
2022-10-19T17:42:30.267Z,12.00
2022-10-19T17:45:00.592Z,11.90
2022-10-19T17:47:30.995Z,11.90
2022-10-19T17:50:01.573Z,11.90
2022-10-19T17:52:31.698Z,11.90
2022-10-19T17:55:12.790Z,11.80
2022-10-19T17:57:44.393Z,11.70
2022-10-19T18:00:22.987Z,11.70
2022-10-19T18:02:53.087Z,11.80
2022-10-19T18:05:25.797Z,11.70
2022-10-19T18:08:02.564Z,11.60
2022-10-19T18:10:39.199Z,11.40
2022-10-19T18:13:12.262Z,11.20
2022-10-19T18:15:45.022Z,11.00
2022-10-19T18:18:23.990Z,10.80
2022-10-19T18:21:00.990Z,10.80
2022-10-19T18:23:32.495Z,10.90
2022-10-19T18:26:09.374Z,11.00
2022-10-19T18:28:45.624Z,10.90
2022-10-19T18:31:19.771Z,10.90
2022-10-19T18:33:59.199Z,11.10
2022-10-19T18:36:36.169Z,11.00
2022-10-19T18:39:09.807Z,11.10
2022-10-19T18:41:40.737Z,11.30
2022-10-19T18:44:15.852Z,11.30
2022-10-19T18:46:51.301Z,11.20
2022-10-19T18:49:23.500Z,11.10
2022-10-19T18:51:56.542Z,11.10
2022-10-19T18:54:28.183Z,11.10
2022-10-19T18:57:02.312Z,11.00
2022-10-19T18:59:34.481Z,11.00
2022-10-19T19:02:05.842Z,11.00
2022-10-19T19:04:34.429Z,11.00
2022-10-19T19:07:05.061Z,11.00
2022-10-19T19:09:36.922Z,10.90
2022-10-19T19:12:07.953Z,10.90
2022-10-19T19:14:43.635Z,10.80
2022-10-19T19:17:13.950Z,10.70
2022-10-19T19:19:46.616Z,10.70
2022-10-19T19:22:18.194Z,10.70
2022-10-19T19:24:55.738Z,10.80
2022-10-19T19:27:31.727Z,10.80
2022-10-19T19:30:08.596Z,10.80
2022-10-19T19:32:46.237Z,10.70
2022-10-19T19:35:19.600Z,10.70
2022-10-19T19:37:50.674Z,10.70
2022-10-19T19:40:20.938Z,10.70
2022-10-19T19:42:57.200Z,10.70
2022-10-19T19:45:33.082Z,10.60
2022-10-19T19:48:03.334Z,10.60
2022-10-19T19:50:42.202Z,10.60
2022-10-19T19:53:19.751Z,10.60
2022-10-19T19:55:50.986Z,10.60
2022-10-19T19:58:23.204Z,10.60
2022-10-19T20:00:56.635Z,10.60
2022-10-19T20:03:27.859Z,10.70
2022-10-19T20:05:56.234Z,10.60
2022-10-19T20:08:27.634Z,10.60
2022-10-19T20:11:03.277Z,10.50
2022-10-19T20:13:38.108Z,10.40
2022-10-19T20:16:29.044Z,10.40
2022-10-19T20:19:01.418Z,10.30
2022-10-19T20:21:33.806Z,10.40
2022-10-19T20:24:04.916Z,10.50
2022-10-19T20:26:37.978Z,10.40
2022-10-19T20:29:13.991Z,10.50
2022-10-19T20:31:45.627Z,10.50
2022-10-19T20:34:21.845Z,10.50
2022-10-19T20:36:58.701Z,10.60
2022-10-19T20:39:30.618Z,10.50
2022-10-19T20:42:00.640Z,10.50
2022-10-19T20:44:30.430Z,10.50
2022-10-19T20:47:05.150Z,10.50
2022-10-19T20:49:38.427Z,10.50
2022-10-19T20:52:08.580Z,10.40
2022-10-19T20:54:38.889Z,10.40
2022-10-19T20:57:09.374Z,10.40
2022-10-19T20:59:41.557Z,10.40
2022-10-19T21:02:16.749Z,10.30
2022-10-19T21:04:46.852Z,10.30
2022-10-19T21:07:16.649Z,10.30
2022-10-19T21:09:46.795Z,10.20
2022-10-19T21:12:17.908Z,10.20
2022-10-19T21:14:56.970Z,10.10
2022-10-19T21:20:03.959Z,10.10
2022-10-19T21:22:41.758Z,10.10
2022-10-19T21:25:19.052Z,10.10
2022-10-19T21:27:52.680Z,10.10
2022-10-19T21:30:27.072Z,10.10
2022-10-19T21:33:03.864Z,10.00
2022-10-19T21:35:36.801Z,10.00
2022-10-19T21:38:13.106Z,10.00
2022-10-19T21:40:45.765Z,10.00
2022-10-19T21:43:22.242Z,10.00
2022-10-19T21:45:56.208Z,9.90
2022-10-19T21:48:27.910Z,9.80
2022-10-19T21:50:58.035Z,9.80
2022-10-19T21:53:30.894Z,9.80
2022-10-19T21:56:15.373Z,9.70
2022-10-19T21:58:52.657Z,9.70
2022-10-19T22:01:26.248Z,9.70
2022-10-19T22:04:04.454Z,9.70
2022-10-19T22:06:37.643Z,9.60
2022-10-19T22:09:10.233Z,9.70
2022-10-19T22:11:40.450Z,9.60
2022-10-19T22:14:11.609Z,9.70
2022-10-19T22:16:43.175Z,9.70
2022-10-19T22:19:19.224Z,9.70
2022-10-19T22:21:52.435Z,9.70
2022-10-19T22:24:22.761Z,9.70
2022-10-19T22:26:53.864Z,9.70
2022-10-19T22:29:26.872Z,9.60
2022-10-19T22:31:57.010Z,9.60
2022-10-19T22:34:29.448Z,9.50
2022-10-19T22:37:00.511Z,9.40
2022-10-19T22:39:33.815Z,9.30
2022-10-19T22:42:03.928Z,9.40
2022-10-19T22:44:36.726Z,9.30
2022-10-19T22:47:06.629Z,9.30
2022-10-19T22:49:51.905Z,9.20
2022-10-19T22:52:21.822Z,9.20
2022-10-19T22:54:51.527Z,9.20
2022-10-19T22:57:27.183Z,9.10
2022-10-19T22:59:57.295Z,9.00
2022-10-19T23:02:27.332Z,9.00
2022-10-19T23:04:58.970Z,9.00
2022-10-19T23:07:29.191Z,8.90
2022-10-19T23:10:01.592Z,8.90
2022-10-19T23:12:31.491Z,8.90
2022-10-19T23:15:01.464Z,8.90
2022-10-19T23:17:31.487Z,8.90
2022-10-19T23:20:12.248Z,8.90
2022-10-19T23:22:42.309Z,8.80
2022-10-19T23:25:12.470Z,8.90
2022-10-19T23:27:48.396Z,8.80
2022-10-19T23:30:18.259Z,8.80
2022-10-19T23:32:48.313Z,8.80
2022-10-19T23:35:19.933Z,8.80
2022-10-19T23:37:49.783Z,8.80
2022-10-19T23:40:19.670Z,8.80
2022-10-19T23:42:49.787Z,8.80
2022-10-19T23:45:20.561Z,8.80
2022-10-19T23:47:50.368Z,8.80
2022-10-19T23:50:23.358Z,8.60
2022-10-19T23:52:53.224Z,8.60
2022-10-19T23:55:30.379Z,8.50
2022-10-19T23:58:01.169Z,8.50
